<?xml version="1.0" encoding="UTF-8" standalone="no" ?><gpx xmlns="http://www.topografix.com/GPX/1/1" xmlns:gpxx="http://www.garmin.com/xmlschemas/GpxExtensions/v3" xmlns:wptx1="http://www.garmin.com/xmlschemas/WaypointExtension/v1" xmlns:gpxtpx="http://www.garmin.com/xmlschemas/TrackPointExtension/v1" creator="Dakota 20" version="1.1" xmlns:xsi="http://www.w3.org/2001/XMLSchema-instance" xsi:schemaLocation="http://www.topografix.com/GPX/1/1 http://www.topografix.com/GPX/1/1/gpx.xsd http://www.garmin.com/xmlschemas/GpxExtensions/v3 http://www8.garmin.com/xmlschemas/GpxExtensionsv3.xsd http://www.garmin.com/xmlschemas/WaypointExtension/v1 http://www8.garmin.com/xmlschemas/WaypointExtensionv1.xsd http://www.garmin.com/xmlschemas/TrackPointExtension/v1 http://www.garmin.com/xmlschemas/TrackPointExtensionv1.xsd"><metadata><link href="http://www.garmin.com"><text>Garmin International</text></link><time>2017-03-01T17:00:57Z</time></metadata><trk><name>Current Track: 01 MAR 2017 09:55</name><extensions><gpxx:TrackExtension><gpxx:DisplayColor>Cyan</gpxx:DisplayColor></gpxx:TrackExtension></extensions><trkseg><trkpt lat="51.7206808738" lon="-1.9700800907"><ele>126.55</ele><time>2017-03-01T09:55:52Z</time></trkpt><trkpt lat="51.7206843104" lon="-1.9700746424"><ele>126.55</ele><time>2017-03-01T09:56:06Z</time></trkpt><trkpt lat="51.7207097076" lon="-1.9700561184"><ele>126.07</ele><time>2017-03-01T09:56:10Z</time></trkpt><trkpt lat="51.7209582310" lon="-1.9698757399"><ele>126.55</ele><time>2017-03-01T09:56:31Z</time></trkpt><trkpt lat="51.7209423054" lon="-1.9697894901"><ele>126.07</ele><time>2017-03-01T09:56:40Z</time></trkpt><trkpt lat="51.7208938580" lon="-1.9695864804"><ele>125.59</ele><time>2017-03-01T09:56:56Z</time></trkpt><trkpt lat="51.7207943648" lon="-1.9694074430"><ele>125.59</ele><time>2017-03-01T09:57:11Z</time></trkpt><trkpt lat="51.7207871564" lon="-1.9691460952"><ele>126.07</ele><time>2017-03-01T09:57:30Z</time></trkpt><trkpt lat="51.7209963687" lon="-1.9690201990"><ele>125.59</ele><time>2017-03-01T09:57:51Z</time></trkpt><trkpt lat="51.7211189959" lon="-1.9687765371"><ele>125.59</ele><time>2017-03-01T09:58:13Z</time></trkpt><trkpt lat="51.7212733068" lon="-1.9686606154"><ele>125.11</ele><time>2017-03-01T09:58:34Z</time></trkpt><trkpt lat="51.7212913278" lon="-1.9686325360"><ele>125.11</ele><time>2017-03-01T09:58:54Z</time></trkpt><trkpt lat="51.7215584591" lon="-1.9685630500"><ele>125.59</ele><time>2017-03-01T09:59:13Z</time></trkpt><trkpt lat="51.7217072379" lon="-1.9684275985"><ele>124.63</ele><time>2017-03-01T09:59:31Z</time></trkpt><trkpt lat="51.7216959223" lon="-1.9684084877"><ele>124.63</ele><time>2017-03-01T09:59:55Z</time></trkpt><trkpt lat="51.7218174599" lon="-1.9682219904"><ele>125.11</ele><time>2017-03-01T10:00:14Z</time></trkpt><trkpt lat="51.7218716070" lon="-1.9680080004"><ele>125.59</ele><time>2017-03-01T10:00:31Z</time></trkpt><trkpt lat="51.7220490519" lon="-1.9678805117"><ele>126.55</ele><time>2017-03-01T10:00:51Z</time></trkpt><trkpt lat="51.7221032828" lon="-1.9678398594"><ele>126.07</ele><time>2017-03-01T10:00:57Z</time></trkpt><trkpt lat="51.7222109064" lon="-1.9676878955"><ele>127.99</ele><time>2017-03-01T10:01:17Z</time></trkpt><trkpt lat="51.7222305201" lon="-1.9676696230"><ele>127.51</ele><time>2017-03-01T10:01:20Z</time></trkpt><trkpt lat="51.7223632056" lon="-1.9675296452"><ele>128.95</ele><time>2017-03-01T10:01:38Z</time></trkpt><trkpt lat="51.7224787921" lon="-1.9673951995"><ele>129.43</ele><time>2017-03-01T10:01:54Z</time></trkpt><trkpt lat="51.7226012517" lon="-1.9672522880"><ele>128.95</ele><time>2017-03-01T10:02:11Z</time></trkpt><trkpt lat="51.7227240466" lon="-1.9671333488"><ele>129.43</ele><time>2017-03-01T10:02:26Z</time></trkpt><trkpt lat="51.7228743341" lon="-1.9670139067"><ele>130.40</ele><time>2017-03-01T10:02:44Z</time></trkpt><trkpt lat="51.7229967099" lon="-1.9668818079"><ele>130.40</ele><time>2017-03-01T10:03:00Z</time></trkpt><trkpt lat="51.7230840493" lon="-1.9668072928"><ele>130.88</ele><time>2017-03-01T10:03:20Z</time></trkpt><trkpt lat="51.7231856380" lon="-1.9667085540"><ele>131.84</ele><time>2017-03-01T10:03:35Z</time></trkpt><trkpt lat="51.7233150546" lon="-1.9665860943"><ele>132.32</ele><time>2017-03-01T10:03:51Z</time></trkpt><trkpt lat="51.7234286293" lon="-1.9664429314"><ele>133.28</ele><time>2017-03-01T10:04:08Z</time></trkpt><trkpt lat="51.7235460598" lon="-1.9663167838"><ele>133.28</ele><time>2017-03-01T10:04:25Z</time></trkpt><trkpt lat="51.7236736324" lon="-1.9662047178"><ele>132.80</ele><time>2017-03-01T10:04:41Z</time></trkpt><trkpt lat="51.7238114309" lon="-1.9660775643"><ele>133.28</ele><time>2017-03-01T10:04:57Z</time></trkpt><trkpt lat="51.7239290290" lon="-1.9659575354"><ele>133.28</ele><time>2017-03-01T10:05:14Z</time></trkpt><trkpt lat="51.7240023706" lon="-1.9658550248"><ele>133.76</ele><time>2017-03-01T10:05:29Z</time></trkpt><trkpt lat="51.7241276801" lon="-1.9657375105"><ele>133.76</ele><time>2017-03-01T10:05:46Z</time></trkpt><trkpt lat="51.7242787220" lon="-1.9656251092"><ele>133.28</ele><time>2017-03-01T10:06:02Z</time></trkpt><trkpt lat="51.7243793048" lon="-1.9654919207"><ele>134.24</ele><time>2017-03-01T10:06:20Z</time></trkpt><trkpt lat="51.7244905327" lon="-1.9654074311"><ele>133.28</ele><time>2017-03-01T10:06:35Z</time></trkpt><trkpt lat="51.7246186081" lon="-1.9652812835"><ele>133.28</ele><time>2017-03-01T10:06:52Z</time></trkpt><trkpt lat="51.7247445881" lon="-1.9651487656"><ele>133.28</ele><time>2017-03-01T10:07:11Z</time></trkpt><trkpt lat="51.7248531338" lon="-1.9650665391"><ele>132.80</ele><time>2017-03-01T10:07:21Z</time></trkpt><trkpt lat="51.7249044310" lon="-1.9649982266"><ele>132.32</ele><time>2017-03-01T10:07:28Z</time></trkpt><trkpt lat="51.7250408884" lon="-1.9648790359"><ele>133.28</ele><time>2017-03-01T10:07:46Z</time></trkpt><trkpt lat="51.7250593286" lon="-1.9649105519"><ele>133.28</ele><time>2017-03-01T10:08:05Z</time></trkpt><trkpt lat="51.7250693869" lon="-1.9648737554"><ele>132.32</ele><time>2017-03-01T10:08:20Z</time></trkpt><trkpt lat="51.7251111288" lon="-1.9648369588"><ele>132.32</ele><time>2017-03-01T10:08:23Z</time></trkpt><trkpt lat="51.7252381984" lon="-1.9646816421"><ele>132.32</ele><time>2017-03-01T10:08:39Z</time></trkpt><trkpt lat="51.7253505159" lon="-1.9645718392"><ele>132.80</ele><time>2017-03-01T10:08:56Z</time></trkpt><trkpt lat="51.7254234385" lon="-1.9644974079"><ele>132.80</ele><time>2017-03-01T10:09:13Z</time></trkpt><trkpt lat="51.7254006397" lon="-1.9644894451"><ele>132.80</ele><time>2017-03-01T10:09:25Z</time></trkpt><trkpt lat="51.7252016533" lon="-1.9646652974"><ele>131.36</ele><time>2017-03-01T10:09:44Z</time></trkpt><trkpt lat="51.7251684610" lon="-1.9647336937"><ele>130.40</ele><time>2017-03-01T10:09:49Z</time></trkpt><trkpt lat="51.7251742445" lon="-1.9648244698"><ele>131.36</ele><time>2017-03-01T10:09:54Z</time></trkpt><trkpt lat="51.7252026591" lon="-1.9650303293"><ele>130.88</ele><time>2017-03-01T10:10:06Z</time></trkpt><trkpt lat="51.7252485082" lon="-1.9652837142"><ele>130.40</ele><time>2017-03-01T10:10:24Z</time></trkpt><trkpt lat="51.7252482567" lon="-1.9653217681"><ele>130.40</ele><time>2017-03-01T10:10:26Z</time></trkpt><trkpt lat="51.7252840474" lon="-1.9655443076"><ele>130.40</ele><time>2017-03-01T10:10:46Z</time></trkpt><trkpt lat="51.7252557166" lon="-1.9657924958"><ele>129.92</ele><time>2017-03-01T10:11:04Z</time></trkpt><trkpt lat="51.7252390366" lon="-1.9660332240"><ele>129.43</ele><time>2017-03-01T10:11:19Z</time></trkpt><trkpt lat="51.7252388690" lon="-1.9660331402"><ele>129.43</ele><time>2017-03-01T10:11:23Z</time></trkpt><trkpt lat="51.7252390366" lon="-1.9661577791"><ele>128.95</ele><time>2017-03-01T10:11:39Z</time></trkpt><trkpt lat="51.7252398748" lon="-1.9661737885"><ele>128.47</ele><time>2017-03-01T10:11:40Z</time></trkpt><trkpt lat="51.7252449039" lon="-1.9664845895"><ele>127.99</ele><time>2017-03-01T10:11:57Z</time></trkpt><trkpt lat="51.7252391204" lon="-1.9668260682"><ele>127.99</ele><time>2017-03-01T10:12:16Z</time></trkpt><trkpt lat="51.7252536211" lon="-1.9671626855"><ele>127.03</ele><time>2017-03-01T10:12:34Z</time></trkpt><trkpt lat="51.7251934391" lon="-1.9674822036"><ele>127.51</ele><time>2017-03-01T10:12:52Z</time></trkpt><trkpt lat="51.7251474224" lon="-1.9675426371"><ele>126.55</ele><time>2017-03-01T10:13:05Z</time></trkpt><trkpt lat="51.7251131404" lon="-1.9675783440"><ele>126.55</ele><time>2017-03-01T10:13:12Z</time></trkpt><trkpt lat="51.7250785232" lon="-1.9675981253"><ele>126.07</ele><time>2017-03-01T10:13:15Z</time></trkpt><trkpt lat="51.7248973902" lon="-1.9677392766"><ele>125.59</ele><time>2017-03-01T10:13:33Z</time></trkpt><trkpt lat="51.7248265631" lon="-1.9678318966"><ele>125.59</ele><time>2017-03-01T10:13:48Z</time></trkpt><trkpt lat="51.7248811293" lon="-1.9678958505"><ele>125.59</ele><time>2017-03-01T10:14:03Z</time></trkpt><trkpt lat="51.7248967197" lon="-1.9679084234"><ele>125.59</ele><time>2017-03-01T10:14:05Z</time></trkpt><trkpt lat="51.7250545509" lon="-1.9679416995"><ele>125.11</ele><time>2017-03-01T10:14:24Z</time></trkpt><trkpt lat="51.7251972947" lon="-1.9679753110"><ele>127.03</ele><time>2017-03-01T10:14:44Z</time></trkpt><trkpt lat="51.7253531981" lon="-1.9680100959"><ele>127.51</ele><time>2017-03-01T10:14:56Z</time></trkpt><trkpt lat="51.7254943494" lon="-1.9680547714"><ele>127.99</ele><time>2017-03-01T10:15:14Z</time></trkpt><trkpt lat="51.7256171443" lon="-1.9680663384"><ele>128.47</ele><time>2017-03-01T10:15:28Z</time></trkpt><trkpt lat="51.7258475628" lon="-1.9680668414"><ele>127.03</ele><time>2017-03-01T10:15:50Z</time></trkpt><trkpt lat="51.7260390054" lon="-1.9680411927"><ele>127.51</ele><time>2017-03-01T10:16:08Z</time></trkpt><trkpt lat="51.7260969244" lon="-1.9680278655"><ele>128.95</ele><time>2017-03-01T10:16:23Z</time></trkpt><trkpt lat="51.7261970043" lon="-1.9680712838"><ele>130.40</ele><time>2017-03-01T10:16:41Z</time></trkpt><trkpt lat="51.7262703460" lon="-1.9681126904"><ele>130.88</ele><time>2017-03-01T10:16:58Z</time></trkpt><trkpt lat="51.7264145147" lon="-1.9681415241"><ele>131.84</ele><time>2017-03-01T10:17:16Z</time></trkpt><trkpt lat="51.7265762854" lon="-1.9682600442"><ele>132.32</ele><time>2017-03-01T10:17:33Z</time></trkpt><trkpt lat="51.7266465258" lon="-1.9682883751"><ele>133.28</ele><time>2017-03-01T10:17:41Z</time></trkpt><trkpt lat="51.7268441711" lon="-1.9683225732"><ele>132.32</ele><time>2017-03-01T10:18:01Z</time></trkpt><trkpt lat="51.7269197758" lon="-1.9683067314"><ele>131.84</ele><time>2017-03-01T10:18:17Z</time></trkpt><trkpt lat="51.7269893456" lon="-1.9682996068"><ele>132.32</ele><time>2017-03-01T10:18:33Z</time></trkpt><trkpt lat="51.7271354422" lon="-1.9683312066"><ele>131.36</ele><time>2017-03-01T10:18:53Z</time></trkpt><trkpt lat="51.7273685429" lon="-1.9683485571"><ele>128.95</ele><time>2017-03-01T10:19:15Z</time></trkpt><trkpt lat="51.7276183236" lon="-1.9683708530"><ele>126.55</ele><time>2017-03-01T10:19:36Z</time></trkpt><trkpt lat="51.7277891468" lon="-1.9683856051"><ele>124.63</ele><time>2017-03-01T10:19:55Z</time></trkpt><trkpt lat="51.7279579584" lon="-1.9684174564"><ele>123.19</ele><time>2017-03-01T10:20:14Z</time></trkpt><trkpt lat="51.7279841099" lon="-1.9684601203"><ele>122.71</ele><time>2017-03-01T10:20:31Z</time></trkpt><trkpt lat="51.7279845290" lon="-1.9684557617"><ele>122.71</ele><time>2017-03-01T10:20:56Z</time></trkpt><trkpt lat="51.7280546017" lon="-1.9683957472"><ele>122.71</ele><time>2017-03-01T10:21:10Z</time></trkpt><trkpt lat="51.7281412706" lon="-1.9683195557"><ele>122.22</ele><time>2017-03-01T10:21:25Z</time></trkpt><trkpt lat="51.7281654105" lon="-1.9682604633"><ele>122.71</ele><time>2017-03-01T10:21:44Z</time></trkpt><trkpt lat="51.7282124329" lon="-1.9682213198"><ele>122.71</ele><time>2017-03-01T10:22:06Z</time></trkpt><trkpt lat="51.7282665800" lon="-1.9681352377"><ele>123.67</ele><time>2017-03-01T10:22:23Z</time></trkpt><trkpt lat="51.7282691784" lon="-1.9681327231"><ele>123.19</ele><time>2017-03-01T10:22:46Z</time></trkpt><trkpt lat="51.7282348964" lon="-1.9681299571"><ele>123.19</ele><time>2017-03-01T10:23:07Z</time></trkpt><trkpt lat="51.7282134388" lon="-1.9681925699"><ele>122.71</ele><time>2017-03-01T10:23:22Z</time></trkpt><trkpt lat="51.7281687632" lon="-1.9682478905"><ele>122.22</ele><time>2017-03-01T10:23:37Z</time></trkpt><trkpt lat="51.7281634826" lon="-1.9682644866"><ele>122.22</ele><time>2017-03-01T10:23:59Z</time></trkpt><trkpt lat="51.7281642370" lon="-1.9682671688"><ele>121.74</ele><time>2017-03-01T10:24:18Z</time></trkpt><trkpt lat="51.7282225750" lon="-1.9682209007"><ele>120.78</ele><time>2017-03-01T10:24:32Z</time></trkpt><trkpt lat="51.7284181248" lon="-1.9681461342"><ele>120.30</ele><time>2017-03-01T10:24:50Z</time></trkpt><trkpt lat="51.7284725234" lon="-1.9681694359"><ele>120.78</ele><time>2017-03-01T10:25:08Z</time></trkpt><trkpt lat="51.7284715176" lon="-1.9681674242"><ele>120.30</ele><time>2017-03-01T10:25:25Z</time></trkpt><trkpt lat="51.7286941409" lon="-1.9680408575"><ele>119.82</ele><time>2017-03-01T10:25:44Z</time></trkpt><trkpt lat="51.7289052811" lon="-1.9679154642"><ele>120.30</ele><time>2017-03-01T10:26:04Z</time></trkpt><trkpt lat="51.7290807981" lon="-1.9678261131"><ele>120.78</ele><time>2017-03-01T10:26:22Z</time></trkpt><trkpt lat="51.7292478494" lon="-1.9677708764"><ele>120.78</ele><time>2017-03-01T10:26:39Z</time></trkpt><trkpt lat="51.7293628491" lon="-1.9677237701"><ele>120.78</ele><time>2017-03-01T10:26:54Z</time></trkpt><trkpt lat="51.7295267992" lon="-1.9676977862"><ele>120.30</ele><time>2017-03-01T10:27:10Z</time></trkpt><trkpt lat="51.7297133803" lon="-1.9676803518"><ele>120.30</ele><time>2017-03-01T10:27:26Z</time></trkpt><trkpt lat="51.7299018055" lon="-1.9676563796"><ele>120.78</ele><time>2017-03-01T10:27:43Z</time></trkpt><trkpt lat="51.7299961857" lon="-1.9676215108"><ele>121.26</ele><time>2017-03-01T10:27:55Z</time></trkpt><trkpt lat="51.7301424500" lon="-1.9676026516"><ele>121.26</ele><time>2017-03-01T10:28:09Z</time></trkpt><trkpt lat="51.7303176317" lon="-1.9675346743"><ele>120.78</ele><time>2017-03-01T10:28:27Z</time></trkpt><trkpt lat="51.7303377483" lon="-1.9675171562"><ele>121.74</ele><time>2017-03-01T10:28:29Z</time></trkpt><trkpt lat="51.7304633930" lon="-1.9674316607"><ele>121.74</ele><time>2017-03-01T10:28:43Z</time></trkpt><trkpt lat="51.7304819170" lon="-1.9673734903"><ele>121.74</ele><time>2017-03-01T10:28:54Z</time></trkpt><trkpt lat="51.7306260858" lon="-1.9674418028"><ele>121.26</ele><time>2017-03-01T10:29:11Z</time></trkpt><trkpt lat="51.7307607830" lon="-1.9674638472"><ele>121.26</ele><time>2017-03-01T10:29:24Z</time></trkpt><trkpt lat="51.7309394851" lon="-1.9674936868"><ele>122.71</ele><time>2017-03-01T10:29:42Z</time></trkpt><trkpt lat="51.7310891021" lon="-1.9675256219"><ele>123.19</ele><time>2017-03-01T10:29:57Z</time></trkpt><trkpt lat="51.7312796228" lon="-1.9675296452"><ele>122.71</ele><time>2017-03-01T10:30:15Z</time></trkpt><trkpt lat="51.7313739192" lon="-1.9675314892"><ele>122.71</ele><time>2017-03-01T10:30:30Z</time></trkpt><trkpt lat="51.7314545531" lon="-1.9675375242"><ele>123.67</ele><time>2017-03-01T10:30:46Z</time></trkpt><trkpt lat="51.7316293158" lon="-1.9675958622"><ele>124.15</ele><time>2017-03-01T10:31:04Z</time></trkpt><trkpt lat="51.7316486780" lon="-1.9676005561"><ele>123.67</ele><time>2017-03-01T10:31:19Z</time></trkpt><trkpt lat="51.7317241151" lon="-1.9675928447"><ele>124.15</ele><time>2017-03-01T10:31:41Z</time></trkpt><trkpt lat="51.7318664398" lon="-1.9676089380"><ele>125.59</ele><time>2017-03-01T10:31:57Z</time></trkpt><trkpt lat="51.7320339940" lon="-1.9676157273"><ele>126.55</ele><time>2017-03-01T10:32:14Z</time></trkpt><trkpt lat="51.7322307173" lon="-1.9676205888"><ele>127.03</ele><time>2017-03-01T10:32:33Z</time></trkpt><trkpt lat="51.7323432025" lon="-1.9677061681"><ele>127.51</ele><time>2017-03-01T10:32:45Z</time></trkpt><trkpt lat="51.7324565258" lon="-1.9677235186"><ele>127.51</ele><time>2017-03-01T10:32:56Z</time></trkpt><trkpt lat="51.7326639779" lon="-1.9677391089"><ele>127.51</ele><time>2017-03-01T10:33:15Z</time></trkpt><trkpt lat="51.7328610364" lon="-1.9677530229"><ele>126.55</ele><time>2017-03-01T10:33:32Z</time></trkpt><trkpt lat="51.7330598552" lon="-1.9677367620"><ele>127.03</ele><time>2017-03-01T10:33:51Z</time></trkpt><trkpt lat="51.7332640383" lon="-1.9677635003"><ele>126.55</ele><time>2017-03-01T10:34:11Z</time></trkpt><trkpt lat="51.7334742565" lon="-1.9678243529"><ele>127.99</ele><time>2017-03-01T10:34:31Z</time></trkpt><trkpt lat="51.7336474266" lon="-1.9678679388"><ele>129.43</ele><time>2017-03-01T10:34:48Z</time></trkpt><trkpt lat="51.7337811179" lon="-1.9678896479"><ele>130.40</ele><time>2017-03-01T10:35:02Z</time></trkpt><trkpt lat="51.7338646855" lon="-1.9679365028"><ele>129.43</ele><time>2017-03-01T10:35:20Z</time></trkpt><trkpt lat="51.7338638473" lon="-1.9679080043"><ele>129.92</ele><time>2017-03-01T10:35:41Z</time></trkpt><trkpt lat="51.7338682897" lon="-1.9678782485"><ele>130.88</ele><time>2017-03-01T10:36:01Z</time></trkpt><trkpt lat="51.7338761687" lon="-1.9678825233"><ele>129.92</ele><time>2017-03-01T10:36:20Z</time></trkpt><trkpt lat="51.7338790186" lon="-1.9678939227"><ele>130.40</ele><time>2017-03-01T10:36:46Z</time></trkpt><trkpt lat="51.7338703852" lon="-1.9679075852"><ele>129.92</ele><time>2017-03-01T10:36:52Z</time></trkpt><trkpt lat="51.7338713910" lon="-1.9679275341"><ele>129.43</ele><time>2017-03-01T10:37:14Z</time></trkpt><trkpt lat="51.7338895798" lon="-1.9679287914"><ele>129.43</ele><time>2017-03-01T10:37:40Z</time></trkpt><trkpt lat="51.7339438945" lon="-1.9678134564"><ele>129.92</ele><time>2017-03-01T10:37:58Z</time></trkpt><trkpt lat="51.7339666933" lon="-1.9677408691"><ele>130.88</ele><time>2017-03-01T10:38:14Z</time></trkpt><trkpt lat="51.7340156436" lon="-1.9675923418"><ele>132.32</ele><time>2017-03-01T10:38:34Z</time></trkpt><trkpt lat="51.7341433838" lon="-1.9674780127"><ele>132.32</ele><time>2017-03-01T10:38:52Z</time></trkpt><trkpt lat="51.7341618240" lon="-1.9672738295"><ele>133.76</ele><time>2017-03-01T10:39:07Z</time></trkpt><trkpt lat="51.7341749836" lon="-1.9671885855"><ele>134.24</ele><time>2017-03-01T10:39:28Z</time></trkpt><trkpt lat="51.7341584712" lon="-1.9671327621"><ele>133.28</ele><time>2017-03-01T10:39:50Z</time></trkpt><trkpt lat="51.7341412883" lon="-1.9672256336"><ele>133.28</ele><time>2017-03-01T10:40:11Z</time></trkpt><trkpt lat="51.7341225129" lon="-1.9672879949"><ele>130.88</ele><time>2017-03-01T10:40:29Z</time></trkpt><trkpt lat="51.7340376042" lon="-1.9675692916"><ele>129.43</ele><time>2017-03-01T10:40:46Z</time></trkpt><trkpt lat="51.7339676991" lon="-1.9678143784"><ele>128.95</ele><time>2017-03-01T10:41:05Z</time></trkpt><trkpt lat="51.7339998018" lon="-1.9678922463"><ele>125.59</ele><time>2017-03-01T10:41:24Z</time></trkpt><trkpt lat="51.7340829503" lon="-1.9677246083"><ele>125.11</ele><time>2017-03-01T10:41:46Z</time></trkpt><trkpt lat="51.7341331579" lon="-1.9675733149"><ele>124.15</ele><time>2017-03-01T10:42:03Z</time></trkpt><trkpt lat="51.7341968603" lon="-1.9674839638"><ele>125.11</ele><time>2017-03-01T10:42:24Z</time></trkpt><trkpt lat="51.7342639994" lon="-1.9673255458"><ele>123.67</ele><time>2017-03-01T10:42:46Z</time></trkpt><trkpt lat="51.7342913244" lon="-1.9672895037"><ele>121.74</ele><time>2017-03-01T10:43:10Z</time></trkpt><trkpt lat="51.7344370019" lon="-1.9670397229"><ele>121.26</ele><time>2017-03-01T10:43:33Z</time></trkpt><trkpt lat="51.7345005367" lon="-1.9669757690"><ele>121.26</ele><time>2017-03-01T10:43:54Z</time></trkpt><trkpt lat="51.7345060688" lon="-1.9669781998"><ele>119.34</ele><time>2017-03-01T10:44:17Z</time></trkpt><trkpt lat="51.7345202342" lon="-1.9670099672"><ele>120.30</ele><time>2017-03-01T10:44:35Z</time></trkpt><trkpt lat="51.7345341481" lon="-1.9670096319"><ele>120.30</ele><time>2017-03-01T10:44:36Z</time></trkpt><trkpt lat="51.7347545084" lon="-1.9669917785"><ele>119.34</ele><time>2017-03-01T10:44:56Z</time></trkpt><trkpt lat="51.7347861081" lon="-1.9669904374"><ele>119.34</ele><time>2017-03-01T10:44:59Z</time></trkpt><trkpt lat="51.7348185461" lon="-1.9669869170"><ele>119.34</ele><time>2017-03-01T10:45:13Z</time></trkpt><trkpt lat="51.7348400876" lon="-1.9669836480"><ele>118.86</ele><time>2017-03-01T10:45:15Z</time></trkpt><trkpt lat="51.7350362241" lon="-1.9669546466"><ele>119.34</ele><time>2017-03-01T10:45:33Z</time></trkpt><trkpt lat="51.7352138367" lon="-1.9669440016"><ele>118.86</ele><time>2017-03-01T10:45:50Z</time></trkpt><trkpt lat="51.7353763618" lon="-1.9669346139"><ele>118.38</ele><time>2017-03-01T10:46:05Z</time></trkpt><trkpt lat="51.7355311755" lon="-1.9669353683"><ele>119.34</ele><time>2017-03-01T10:46:20Z</time></trkpt><trkpt lat="51.7356830556" lon="-1.9669362903"><ele>118.86</ele><time>2017-03-01T10:46:35Z</time></trkpt><trkpt lat="51.7357793637" lon="-1.9669460133"><ele>119.34</ele><time>2017-03-01T10:46:45Z</time></trkpt><trkpt lat="51.7358032521" lon="-1.9669274893"><ele>118.38</ele><time>2017-03-01T10:46:48Z</time></trkpt><trkpt lat="51.7359749135" lon="-1.9669125695"><ele>118.86</ele><time>2017-03-01T10:47:04Z</time></trkpt><trkpt lat="51.7361279670" lon="-1.9668870047"><ele>119.34</ele><time>2017-03-01T10:47:19Z</time></trkpt><trkpt lat="51.7362047452" lon="-1.9668742642"><ele>119.34</ele><time>2017-03-01T10:47:34Z</time></trkpt><trkpt lat="51.7362140492" lon="-1.9668405689"><ele>119.82</ele><time>2017-03-01T10:47:48Z</time></trkpt><trkpt lat="51.7362591438" lon="-1.9666359667"><ele>119.82</ele><time>2017-03-01T10:48:02Z</time></trkpt><trkpt lat="51.7362607364" lon="-1.9666182809"><ele>118.86</ele><time>2017-03-01T10:48:03Z</time></trkpt><trkpt lat="51.7362758238" lon="-1.9665743597"><ele>119.82</ele><time>2017-03-01T10:48:15Z</time></trkpt><trkpt lat="51.7363080941" lon="-1.9665689114"><ele>119.82</ele><time>2017-03-01T10:48:32Z</time></trkpt><trkpt lat="51.7363179848" lon="-1.9666140899"><ele>119.82</ele><time>2017-03-01T10:48:45Z</time></trkpt><trkpt lat="51.7363951821" lon="-1.9666847493"><ele>119.34</ele><time>2017-03-01T10:49:00Z</time></trkpt><trkpt lat="51.7364034802" lon="-1.9666869286"><ele>118.86</ele><time>2017-03-01T10:49:23Z</time></trkpt><trkpt lat="51.7364567891" lon="-1.9667108171"><ele>118.86</ele><time>2017-03-01T10:49:29Z</time></trkpt><trkpt lat="51.7365897261" lon="-1.9667642936"><ele>119.34</ele><time>2017-03-01T10:49:43Z</time></trkpt><trkpt lat="51.7366774846" lon="-1.9667690713"><ele>118.38</ele><time>2017-03-01T10:50:00Z</time></trkpt><trkpt lat="51.7366944999" lon="-1.9667702448"><ele>121.26</ele><time>2017-03-01T10:50:02Z</time></trkpt><trkpt lat="51.7367018759" lon="-1.9667740166"><ele>118.38</ele><time>2017-03-01T10:50:03Z</time></trkpt><trkpt lat="51.7369209789" lon="-1.9668556564"><ele>118.86</ele><time>2017-03-01T10:50:26Z</time></trkpt><trkpt lat="51.7369374912" lon="-1.9668081310"><ele>120.30</ele><time>2017-03-01T10:50:39Z</time></trkpt><trkpt lat="51.7369966675" lon="-1.9668339472"><ele>118.86</ele><time>2017-03-01T10:50:55Z</time></trkpt><trkpt lat="51.7369969189" lon="-1.9668331929"><ele>120.30</ele><time>2017-03-01T10:51:04Z</time></trkpt><trkpt lat="51.7370385770" lon="-1.9668411557"><ele>118.38</ele><time>2017-03-01T10:51:07Z</time></trkpt><trkpt lat="51.7371550854" lon="-1.9668543153"><ele>120.30</ele><time>2017-03-01T10:51:18Z</time></trkpt><trkpt lat="51.7372095678" lon="-1.9668506272"><ele>118.86</ele><time>2017-03-01T10:51:22Z</time></trkpt><trkpt lat="51.7374147568" lon="-1.9668367133"><ele>118.38</ele><time>2017-03-01T10:51:41Z</time></trkpt><trkpt lat="51.7375968955" lon="-1.9668325223"><ele>119.34</ele><time>2017-03-01T10:51:57Z</time></trkpt><trkpt lat="51.7377765197" lon="-1.9668224640"><ele>118.86</ele><time>2017-03-01T10:52:14Z</time></trkpt><trkpt lat="51.7378467601" lon="-1.9668435026"><ele>119.34</ele><time>2017-03-01T10:52:35Z</time></trkpt><trkpt lat="51.7378472630" lon="-1.9668395631"><ele>115.98</ele><time>2017-03-01T10:52:51Z</time></trkpt><trkpt lat="51.7378471792" lon="-1.9668396469"><ele>120.30</ele><time>2017-03-01T10:52:52Z</time></trkpt><trkpt lat="51.7378210276" lon="-1.9667914510"><ele>119.34</ele><time>2017-03-01T10:53:02Z</time></trkpt><trkpt lat="51.7380347662" lon="-1.9668233860"><ele>118.86</ele><time>2017-03-01T10:53:20Z</time></trkpt><trkpt lat="51.7380656954" lon="-1.9668192789"><ele>118.86</ele><time>2017-03-01T10:53:23Z</time></trkpt><trkpt lat="51.7382474989" lon="-1.9668150041"><ele>119.82</ele><time>2017-03-01T10:53:41Z</time></trkpt><trkpt lat="51.7382900789" lon="-1.9667891040"><ele>119.34</ele><time>2017-03-01T10:54:01Z</time></trkpt><trkpt lat="51.7383002210" lon="-1.9667680655"><ele>119.82</ele><time>2017-03-01T10:54:03Z</time></trkpt><trkpt lat="51.7384570464" lon="-1.9666139223"><ele>119.82</ele><time>2017-03-01T10:54:20Z</time></trkpt><trkpt lat="51.7385899834" lon="-1.9664952345"><ele>120.30</ele><time>2017-03-01T10:54:38Z</time></trkpt><trkpt lat="51.7387973517" lon="-1.9662999362"><ele>120.78</ele><time>2017-03-01T10:55:01Z</time></trkpt><trkpt lat="51.7389719468" lon="-1.9661528338"><ele>122.71</ele><time>2017-03-01T10:55:21Z</time></trkpt><trkpt lat="51.7390848510" lon="-1.9660138618"><ele>124.63</ele><time>2017-03-01T10:55:36Z</time></trkpt><trkpt lat="51.7392102443" lon="-1.9658242632"><ele>125.59</ele><time>2017-03-01T10:55:54Z</time></trkpt><trkpt lat="51.7392936442" lon="-1.9656264503"><ele>127.51</ele><time>2017-03-01T10:56:09Z</time></trkpt><trkpt lat="51.7392771319" lon="-1.9654939324"><ele>129.43</ele><time>2017-03-01T10:56:24Z</time></trkpt><trkpt lat="51.7392909620" lon="-1.9654800184"><ele>129.43</ele><time>2017-03-01T10:56:25Z</time></trkpt><trkpt lat="51.7393121682" lon="-1.9653311558"><ele>131.84</ele><time>2017-03-01T10:56:35Z</time></trkpt><trkpt lat="51.7393244896" lon="-1.9652950298"><ele>132.32</ele><time>2017-03-01T10:56:38Z</time></trkpt><trkpt lat="51.7394001782" lon="-1.9651770964"><ele>134.72</ele><time>2017-03-01T10:56:52Z</time></trkpt><trkpt lat="51.7394512240" lon="-1.9651996437"><ele>134.72</ele><time>2017-03-01T10:57:07Z</time></trkpt><trkpt lat="51.7394485418" lon="-1.9651967939"><ele>133.76</ele><time>2017-03-01T10:57:29Z</time></trkpt><trkpt lat="51.7394564208" lon="-1.9652130548"><ele>134.24</ele><time>2017-03-01T10:57:47Z</time></trkpt><trkpt lat="51.7394963186" lon="-1.9650579896"><ele>133.76</ele><time>2017-03-01T10:58:02Z</time></trkpt><trkpt lat="51.7395965662" lon="-1.9649118930"><ele>136.16</ele><time>2017-03-01T10:58:18Z</time></trkpt><trkpt lat="51.7396928743" lon="-1.9647583365"><ele>137.61</ele><time>2017-03-01T10:58:32Z</time></trkpt><trkpt lat="51.7397522181" lon="-1.9646466896"><ele>138.57</ele><time>2017-03-01T10:58:48Z</time></trkpt><trkpt lat="51.7397780344" lon="-1.9646291714"><ele>140.01</ele><time>2017-03-01T10:59:05Z</time></trkpt><trkpt lat="51.7397912778" lon="-1.9645841606"><ele>140.01</ele><time>2017-03-01T10:59:08Z</time></trkpt><trkpt lat="51.7398823891" lon="-1.9644111581"><ele>141.45</ele><time>2017-03-01T10:59:25Z</time></trkpt><trkpt lat="51.7399650346" lon="-1.9642384909"><ele>143.37</ele><time>2017-03-01T10:59:40Z</time></trkpt><trkpt lat="51.7400517873" lon="-1.9641386624"><ele>144.34</ele><time>2017-03-01T10:59:55Z</time></trkpt><trkpt lat="51.7401104607" lon="-1.9641389139"><ele>145.78</ele><time>2017-03-01T11:00:12Z</time></trkpt><trkpt lat="51.7401195969" lon="-1.9641391654"><ele>145.30</ele><time>2017-03-01T11:00:35Z</time></trkpt><trkpt lat="51.7401917651" lon="-1.9639701862"><ele>147.22</ele><time>2017-03-01T11:00:54Z</time></trkpt><trkpt lat="51.7403007299" lon="-1.9637925737"><ele>148.18</ele><time>2017-03-01T11:01:14Z</time></trkpt><trkpt lat="51.7403647676" lon="-1.9637072459"><ele>149.14</ele><time>2017-03-01T11:01:29Z</time></trkpt><trkpt lat="51.7404372711" lon="-1.9636132848"><ele>150.10</ele><time>2017-03-01T11:01:46Z</time></trkpt><trkpt lat="51.7405244429" lon="-1.9635116123"><ele>150.58</ele><time>2017-03-01T11:02:05Z</time></trkpt><trkpt lat="51.7406241037" lon="-1.9634189922"><ele>150.58</ele><time>2017-03-01T11:02:22Z</time></trkpt><trkpt lat="51.7406909913" lon="-1.9633226842"><ele>151.06</ele><time>2017-03-01T11:02:37Z</time></trkpt><trkpt lat="51.7408608086" lon="-1.9632689562"><ele>151.54</ele><time>2017-03-01T11:03:01Z</time></trkpt><trkpt lat="51.7410666682" lon="-1.9632556289"><ele>151.54</ele><time>2017-03-01T11:03:20Z</time></trkpt><trkpt lat="51.7412835918" lon="-1.9631709717"><ele>152.03</ele><time>2017-03-01T11:03:39Z</time></trkpt><trkpt lat="51.7414570134" lon="-1.9631353486"><ele>153.47</ele><time>2017-03-01T11:03:56Z</time></trkpt><trkpt lat="51.7416083906" lon="-1.9632120430"><ele>153.95</ele><time>2017-03-01T11:04:14Z</time></trkpt><trkpt lat="51.7416106537" lon="-1.9632223528"><ele>153.47</ele><time>2017-03-01T11:04:30Z</time></trkpt><trkpt lat="51.7416093964" lon="-1.9632285554"><ele>153.95</ele><time>2017-03-01T11:04:55Z</time></trkpt><trkpt lat="51.7416228913" lon="-1.9632381108"><ele>154.43</ele><time>2017-03-01T11:05:15Z</time></trkpt><trkpt lat="51.7415995058" lon="-1.9632125460"><ele>153.95</ele><time>2017-03-01T11:05:38Z</time></trkpt><trkpt lat="51.7416083068" lon="-1.9631772581"><ele>153.95</ele><time>2017-03-01T11:06:01Z</time></trkpt><trkpt lat="51.7416896950" lon="-1.9633210078"><ele>154.43</ele><time>2017-03-01T11:06:24Z</time></trkpt><trkpt lat="51.7416303512" lon="-1.9632423855"><ele>153.95</ele><time>2017-03-01T11:06:42Z</time></trkpt><trkpt lat="51.7416176945" lon="-1.9632298965"><ele>154.43</ele><time>2017-03-01T11:07:07Z</time></trkpt><trkpt lat="51.7416351289" lon="-1.9632079359"><ele>153.95</ele><time>2017-03-01T11:07:30Z</time></trkpt><trkpt lat="51.7416417506" lon="-1.9632067624"><ele>153.95</ele><time>2017-03-01T11:07:54Z</time></trkpt><trkpt lat="51.7416295130" lon="-1.9632073492"><ele>153.95</ele><time>2017-03-01T11:08:25Z</time></trkpt><trkpt lat="51.7416257411" lon="-1.9631982967"><ele>153.95</ele><time>2017-03-01T11:08:46Z</time></trkpt><trkpt lat="51.7416303512" lon="-1.9632218499"><ele>153.95</ele><time>2017-03-01T11:09:11Z</time></trkpt><trkpt lat="51.7416259926" lon="-1.9632167369"><ele>153.95</ele><time>2017-03-01T11:09:38Z</time></trkpt><trkpt lat="51.7416286748" lon="-1.9632142223"><ele>153.95</ele><time>2017-03-01T11:10:12Z</time></trkpt><trkpt lat="51.7416301835" lon="-1.9632096123"><ele>153.47</ele><time>2017-03-01T11:10:40Z</time></trkpt><trkpt lat="51.7416330334" lon="-1.9632096123"><ele>154.43</ele><time>2017-03-01T11:11:06Z</time></trkpt><trkpt lat="51.7416357994" lon="-1.9632155634"><ele>153.47</ele><time>2017-03-01T11:11:25Z</time></trkpt><trkpt lat="51.7416334525" lon="-1.9632230233"><ele>153.95</ele><time>2017-03-01T11:11:52Z</time></trkpt><trkpt lat="51.7416370567" lon="-1.9632578921"><ele>153.95</ele><time>2017-03-01T11:12:17Z</time></trkpt><trkpt lat="51.7416460253" lon="-1.9632544555"><ele>153.95</ele><time>2017-03-01T11:12:37Z</time></trkpt><trkpt lat="51.7416437622" lon="-1.9632552098"><ele>153.95</ele><time>2017-03-01T11:12:53Z</time></trkpt><trkpt lat="51.7416429240" lon="-1.9632498454"><ele>153.95</ele><time>2017-03-01T11:13:20Z</time></trkpt><trkpt lat="51.7416391522" lon="-1.9632518571"><ele>153.47</ele><time>2017-03-01T11:13:49Z</time></trkpt><trkpt lat="51.7416355480" lon="-1.9632539526"><ele>153.95</ele><time>2017-03-01T11:14:19Z</time></trkpt><trkpt lat="51.7416402418" lon="-1.9632495940"><ele>152.99</ele><time>2017-03-01T11:14:45Z</time></trkpt><trkpt lat="51.7416398227" lon="-1.9632449001"><ele>153.47</ele><time>2017-03-01T11:15:14Z</time></trkpt><trkpt lat="51.7416392360" lon="-1.9632355124"><ele>153.47</ele><time>2017-03-01T11:15:42Z</time></trkpt><trkpt lat="51.7416425049" lon="-1.9632268790"><ele>153.95</ele><time>2017-03-01T11:16:10Z</time></trkpt><trkpt lat="51.7416411638" lon="-1.9632175751"><ele>154.43</ele><time>2017-03-01T11:16:47Z</time></trkpt><trkpt lat="51.7416418344" lon="-1.9632142223"><ele>153.47</ele><time>2017-03-01T11:17:11Z</time></trkpt><trkpt lat="51.7416259088" lon="-1.9632074330"><ele>152.99</ele><time>2017-03-01T11:17:30Z</time></trkpt><trkpt lat="51.7416192032" lon="-1.9632108696"><ele>153.47</ele><time>2017-03-01T11:17:54Z</time></trkpt><trkpt lat="51.7416162696" lon="-1.9632168207"><ele>153.47</ele><time>2017-03-01T11:18:13Z</time></trkpt><trkpt lat="51.7416146770" lon="-1.9632285554"><ele>153.47</ele><time>2017-03-01T11:18:35Z</time></trkpt><trkpt lat="51.7416010983" lon="-1.9632417150"><ele>153.95</ele><time>2017-03-01T11:18:56Z</time></trkpt><trkpt lat="51.7416378111" lon="-1.9632022362"><ele>153.47</ele><time>2017-03-01T11:19:17Z</time></trkpt><trkpt lat="51.7416332848" lon="-1.9632036611"><ele>153.95</ele><time>2017-03-01T11:19:45Z</time></trkpt><trkpt lat="51.7416270822" lon="-1.9632096123"><ele>153.95</ele><time>2017-03-01T11:20:16Z</time></trkpt><trkpt lat="51.7416241486" lon="-1.9632165693"><ele>154.43</ele><time>2017-03-01T11:20:45Z</time></trkpt><trkpt lat="51.7416250706" lon="-1.9632185809"><ele>153.47</ele><time>2017-03-01T11:21:11Z</time></trkpt><trkpt lat="51.7416285072" lon="-1.9632216822"><ele>153.47</ele><time>2017-03-01T11:21:34Z</time></trkpt><trkpt lat="51.7416309379" lon="-1.9632249512"><ele>154.43</ele><time>2017-03-01T11:22:06Z</time></trkpt><trkpt lat="51.7416306026" lon="-1.9632221851"><ele>153.95</ele><time>2017-03-01T11:22:28Z</time></trkpt><trkpt lat="51.7416260764" lon="-1.9632219337"><ele>153.95</ele><time>2017-03-01T11:22:54Z</time></trkpt><trkpt lat="51.7416263279" lon="-1.9632178266"><ele>153.95</ele><time>2017-03-01T11:23:21Z</time></trkpt><trkpt lat="51.7416228913" lon="-1.9632131327"><ele>153.95</ele><time>2017-03-01T11:23:46Z</time></trkpt><trkpt lat="51.7416169401" lon="-1.9632157311"><ele>153.95</ele><time>2017-03-01T11:24:08Z</time></trkpt><trkpt lat="51.7416166887" lon="-1.9632174913"><ele>153.95</ele><time>2017-03-01T11:24:32Z</time></trkpt><trkpt lat="51.7416198738" lon="-1.9632182457"><ele>153.95</ele><time>2017-03-01T11:24:54Z</time></trkpt><trkpt lat="51.7416238971" lon="-1.9632105343"><ele>153.95</ele><time>2017-03-01T11:25:20Z</time></trkpt><trkpt lat="51.7416204605" lon="-1.9632102828"><ele>153.95</ele><time>2017-03-01T11:25:47Z</time></trkpt><trkpt lat="51.7416150961" lon="-1.9632088579"><ele>153.95</ele><time>2017-03-01T11:26:11Z</time></trkpt><trkpt lat="51.7415803950" lon="-1.9631724805"><ele>153.95</ele><time>2017-03-01T11:26:22Z</time></trkpt><trkpt lat="51.7415290140" lon="-1.9631704688"><ele>153.47</ele><time>2017-03-01T11:26:33Z</time></trkpt><trkpt lat="51.7414076440" lon="-1.9631590694"><ele>152.99</ele><time>2017-03-01T11:26:46Z</time></trkpt><trkpt lat="51.7413030379" lon="-1.9631573092"><ele>152.99</ele><time>2017-03-01T11:26:59Z</time></trkpt><trkpt lat="51.7412262596" lon="-1.9632031582"><ele>152.51</ele><time>2017-03-01T11:27:11Z</time></trkpt><trkpt lat="51.7411548458" lon="-1.9632291421"><ele>152.51</ele><time>2017-03-01T11:27:27Z</time></trkpt><trkpt lat="51.7410685122" lon="-1.9632775057"><ele>152.03</ele><time>2017-03-01T11:27:41Z</time></trkpt><trkpt lat="51.7409306299" lon="-1.9632634241"><ele>151.54</ele><time>2017-03-01T11:27:58Z</time></trkpt><trkpt lat="51.7408026382" lon="-1.9632412121"><ele>151.54</ele><time>2017-03-01T11:28:12Z</time></trkpt><trkpt lat="51.7407280393" lon="-1.9632594846"><ele>150.10</ele><time>2017-03-01T11:28:23Z</time></trkpt><trkpt lat="51.7407132033" lon="-1.9632795174"><ele>150.58</ele><time>2017-03-01T11:28:25Z</time></trkpt><trkpt lat="51.7406546138" lon="-1.9633484166"><ele>151.06</ele><time>2017-03-01T11:28:38Z</time></trkpt><trkpt lat="51.7406137940" lon="-1.9634136278"><ele>150.10</ele><time>2017-03-01T11:28:53Z</time></trkpt><trkpt lat="51.7405919172" lon="-1.9634542800"><ele>149.14</ele><time>2017-03-01T11:29:06Z</time></trkpt><trkpt lat="51.7405900732" lon="-1.9634540286"><ele>149.14</ele><time>2017-03-01T11:29:07Z</time></trkpt><trkpt lat="51.7404536996" lon="-1.9635810144"><ele>149.14</ele><time>2017-03-01T11:29:23Z</time></trkpt><trkpt lat="51.7403910030" lon="-1.9636744726"><ele>148.18</ele><time>2017-03-01T11:29:38Z</time></trkpt><trkpt lat="51.7402857263" lon="-1.9638049789"><ele>147.70</ele><time>2017-03-01T11:29:54Z</time></trkpt><trkpt lat="51.7402652744" lon="-1.9638748001"><ele>146.26</ele><time>2017-03-01T11:30:06Z</time></trkpt><trkpt lat="51.7401586566" lon="-1.9640200585"><ele>145.30</ele><time>2017-03-01T11:30:20Z</time></trkpt><trkpt lat="51.7401140649" lon="-1.9641099125"><ele>144.82</ele><time>2017-03-01T11:30:35Z</time></trkpt><trkpt lat="51.7401072755" lon="-1.9641296100"><ele>144.82</ele><time>2017-03-01T11:30:53Z</time></trkpt><trkpt lat="51.7401069403" lon="-1.9641296938"><ele>144.82</ele><time>2017-03-01T11:31:16Z</time></trkpt><trkpt lat="51.7400698084" lon="-1.9641556777"><ele>144.34</ele><time>2017-03-01T11:31:35Z</time></trkpt><trkpt lat="51.7400619294" lon="-1.9641559292"><ele>144.82</ele><time>2017-03-01T11:31:36Z</time></trkpt><trkpt lat="51.7400255520" lon="-1.9641662389"><ele>144.34</ele><time>2017-03-01T11:31:39Z</time></trkpt><trkpt lat="51.7399130668" lon="-1.9643162750"><ele>140.97</ele><time>2017-03-01T11:31:52Z</time></trkpt><trkpt lat="51.7398931179" lon="-1.9643519819"><ele>140.97</ele><time>2017-03-01T11:31:55Z</time></trkpt><trkpt lat="51.7398048565" lon="-1.9645289239"><ele>140.01</ele><time>2017-03-01T11:32:10Z</time></trkpt><trkpt lat="51.7397495359" lon="-1.9646458514"><ele>139.53</ele><time>2017-03-01T11:32:20Z</time></trkpt><trkpt lat="51.7397248093" lon="-1.9646927062"><ele>138.57</ele><time>2017-03-01T11:32:24Z</time></trkpt><trkpt lat="51.7396459356" lon="-1.9648486935"><ele>137.13</ele><time>2017-03-01T11:32:38Z</time></trkpt><trkpt lat="51.7396406550" lon="-1.9648608472"><ele>137.13</ele><time>2017-03-01T11:32:39Z</time></trkpt><trkpt lat="51.7395464424" lon="-1.9650030043"><ele>136.16</ele><time>2017-03-01T11:32:53Z</time></trkpt><trkpt lat="51.7394851707" lon="-1.9651353545"><ele>134.24</ele><time>2017-03-01T11:33:08Z</time></trkpt><trkpt lat="51.7394753639" lon="-1.9651413895"><ele>134.24</ele><time>2017-03-01T11:33:27Z</time></trkpt><trkpt lat="51.7394682392" lon="-1.9651586562"><ele>133.76</ele><time>2017-03-01T11:33:41Z</time></trkpt><trkpt lat="51.7394742742" lon="-1.9651669543"><ele>134.24</ele><time>2017-03-01T11:33:55Z</time></trkpt><trkpt lat="51.7394761182" lon="-1.9651655294"><ele>133.76</ele><time>2017-03-01T11:34:17Z</time></trkpt><trkpt lat="51.7394579295" lon="-1.9652118813"><ele>133.28</ele><time>2017-03-01T11:34:35Z</time></trkpt><trkpt lat="51.7393756192" lon="-1.9653563015"><ele>130.40</ele><time>2017-03-01T11:34:50Z</time></trkpt><trkpt lat="51.7392971646" lon="-1.9654504303"><ele>128.47</ele><time>2017-03-01T11:35:06Z</time></trkpt><trkpt lat="51.7392361443" lon="-1.9653660245"><ele>128.47</ele><time>2017-03-01T11:35:16Z</time></trkpt><trkpt lat="51.7392335460" lon="-1.9653399568"><ele>128.47</ele><time>2017-03-01T11:35:18Z</time></trkpt><trkpt lat="51.7391927261" lon="-1.9651822094"><ele>128.95</ele><time>2017-03-01T11:35:30Z</time></trkpt><trkpt lat="51.7391171213" lon="-1.9650187623"><ele>130.40</ele><time>2017-03-01T11:35:43Z</time></trkpt><trkpt lat="51.7391092423" lon="-1.9650083687"><ele>129.92</ele><time>2017-03-01T11:35:44Z</time></trkpt><trkpt lat="51.7390068993" lon="-1.9648173451"><ele>130.88</ele><time>2017-03-01T11:36:00Z</time></trkpt><trkpt lat="51.7389452923" lon="-1.9647963904"><ele>131.36</ele><time>2017-03-01T11:36:14Z</time></trkpt><trkpt lat="51.7389295343" lon="-1.9647942111"><ele>131.36</ele><time>2017-03-01T11:36:28Z</time></trkpt><trkpt lat="51.7388166301" lon="-1.9647443388"><ele>130.88</ele><time>2017-03-01T11:36:44Z</time></trkpt><trkpt lat="51.7386816815" lon="-1.9646772835"><ele>130.40</ele><time>2017-03-01T11:37:00Z</time></trkpt><trkpt lat="51.7385700345" lon="-1.9646060374"><ele>130.88</ele><time>2017-03-01T11:37:13Z</time></trkpt><trkpt lat="51.7384319846" lon="-1.9645033590"><ele>129.43</ele><time>2017-03-01T11:37:28Z</time></trkpt><trkpt lat="51.7383360118" lon="-1.9644376449"><ele>129.43</ele><time>2017-03-01T11:37:40Z</time></trkpt><trkpt lat="51.7382272147" lon="-1.9643704221"><ele>128.95</ele><time>2017-03-01T11:37:54Z</time></trkpt><trkpt lat="51.7382021528" lon="-1.9643775467"><ele>128.95</ele><time>2017-03-01T11:38:00Z</time></trkpt><trkpt lat="51.7381276377" lon="-1.9643332064"><ele>128.47</ele><time>2017-03-01T11:38:14Z</time></trkpt><trkpt lat="51.7380846385" lon="-1.9643090665"><ele>128.47</ele><time>2017-03-01T11:38:19Z</time></trkpt><trkpt lat="51.7379615922" lon="-1.9642651454"><ele>127.51</ele><time>2017-03-01T11:38:33Z</time></trkpt><trkpt lat="51.7378226202" lon="-1.9641948212"><ele>127.03</ele><time>2017-03-01T11:38:49Z</time></trkpt><trkpt lat="51.7377191875" lon="-1.9641659874"><ele>126.55</ele><time>2017-03-01T11:39:01Z</time></trkpt><trkpt lat="51.7375710793" lon="-1.9641317893"><ele>126.55</ele><time>2017-03-01T11:39:16Z</time></trkpt><trkpt lat="51.7374554090" lon="-1.9640984293"><ele>126.07</ele><time>2017-03-01T11:39:29Z</time></trkpt><trkpt lat="51.7373361345" lon="-1.9640820008"><ele>126.07</ele><time>2017-03-01T11:39:41Z</time></trkpt><trkpt lat="51.7372684926" lon="-1.9640705176"><ele>126.07</ele><time>2017-03-01T11:39:51Z</time></trkpt><trkpt lat="51.7371917143" lon="-1.9640395883"><ele>126.55</ele><time>2017-03-01T11:40:00Z</time></trkpt><trkpt lat="51.7370760441" lon="-1.9640064798"><ele>127.03</ele><time>2017-03-01T11:40:15Z</time></trkpt><trkpt lat="51.7369650677" lon="-1.9639956672"><ele>126.55</ele><time>2017-03-01T11:40:29Z</time></trkpt><trkpt lat="51.7368759681" lon="-1.9640006963"><ele>127.03</ele><time>2017-03-01T11:40:40Z</time></trkpt><trkpt lat="51.7367922328" lon="-1.9640137721"><ele>126.55</ele><time>2017-03-01T11:40:54Z</time></trkpt><trkpt lat="51.7367660813" lon="-1.9640135206"><ele>126.07</ele><time>2017-03-01T11:41:14Z</time></trkpt><trkpt lat="51.7367311288" lon="-1.9640214834"><ele>126.55</ele><time>2017-03-01T11:41:17Z</time></trkpt><trkpt lat="51.7366820946" lon="-1.9640421029"><ele>125.59</ele><time>2017-03-01T11:41:22Z</time></trkpt><trkpt lat="51.7365397699" lon="-1.9640996028"><ele>126.07</ele><time>2017-03-01T11:41:36Z</time></trkpt><trkpt lat="51.7364215013" lon="-1.9641373213"><ele>126.55</ele><time>2017-03-01T11:41:49Z</time></trkpt><trkpt lat="51.7362563778" lon="-1.9642140158"><ele>127.03</ele><time>2017-03-01T11:42:07Z</time></trkpt><trkpt lat="51.7361179087" lon="-1.9642798137"><ele>126.07</ele><time>2017-03-01T11:42:22Z</time></trkpt><trkpt lat="51.7359875701" lon="-1.9643400796"><ele>126.55</ele><time>2017-03-01T11:42:38Z</time></trkpt><trkpt lat="51.7359087802" lon="-1.9643824920"><ele>126.55</ele><time>2017-03-01T11:42:47Z</time></trkpt><trkpt lat="51.7358656134" lon="-1.9644179475"><ele>126.55</ele><time>2017-03-01T11:42:52Z</time></trkpt><trkpt lat="51.7357290722" lon="-1.9644960668"><ele>126.55</ele><time>2017-03-01T11:43:08Z</time></trkpt><trkpt lat="51.7355876695" lon="-1.9645830709"><ele>127.03</ele><time>2017-03-01T11:43:24Z</time></trkpt><trkpt lat="51.7355769407" lon="-1.9645962305"><ele>126.55</ele><time>2017-03-01T11:43:41Z</time></trkpt><trkpt lat="51.7355516274" lon="-1.9646108989"><ele>127.03</ele><time>2017-03-01T11:43:50Z</time></trkpt><trkpt lat="51.7355167586" lon="-1.9646518864"><ele>127.51</ele><time>2017-03-01T11:43:55Z</time></trkpt><trkpt lat="51.7354166787" lon="-1.9647308439"><ele>127.51</ele><time>2017-03-01T11:44:09Z</time></trkpt><trkpt lat="51.7353513837" lon="-1.9647783693"><ele>127.99</ele><time>2017-03-01T11:44:17Z</time></trkpt><trkpt lat="51.7353293393" lon="-1.9648008328"><ele>127.99</ele><time>2017-03-01T11:44:20Z</time></trkpt><trkpt lat="51.7351916246" lon="-1.9649140723"><ele>128.95</ele><time>2017-03-01T11:44:34Z</time></trkpt><trkpt lat="51.7350595258" lon="-1.9650326762"><ele>128.95</ele><time>2017-03-01T11:44:49Z</time></trkpt><trkpt lat="51.7350352183" lon="-1.9650601689"><ele>129.43</ele><time>2017-03-01T11:44:52Z</time></trkpt><trkpt lat="51.7349969968" lon="-1.9651254639"><ele>129.92</ele><time>2017-03-01T11:44:57Z</time></trkpt><trkpt lat="51.7349011917" lon="-1.9652372785"><ele>129.43</ele><time>2017-03-01T11:45:10Z</time></trkpt><trkpt lat="51.7348448653" lon="-1.9653288089"><ele>129.92</ele><time>2017-03-01T11:45:20Z</time></trkpt><trkpt lat="51.7348311190" lon="-1.9653565530"><ele>129.92</ele><time>2017-03-01T11:45:22Z</time></trkpt><trkpt lat="51.7347474676" lon="-1.9654956926"><ele>129.43</ele><time>2017-03-01T11:45:34Z</time></trkpt><trkpt lat="51.7346402630" lon="-1.9656998757"><ele>129.43</ele><time>2017-03-01T11:45:49Z</time></trkpt><trkpt lat="51.7345545162" lon="-1.9658567011"><ele>129.92</ele><time>2017-03-01T11:46:01Z</time></trkpt><trkpt lat="51.7344548553" lon="-1.9659987744"><ele>130.88</ele><time>2017-03-01T11:46:16Z</time></trkpt><trkpt lat="51.7344059888" lon="-1.9660723675"><ele>131.84</ele><time>2017-03-01T11:46:22Z</time></trkpt><trkpt lat="51.7343012989" lon="-1.9662695937"><ele>131.84</ele><time>2017-03-01T11:46:39Z</time></trkpt><trkpt lat="51.7342390213" lon="-1.9663631357"><ele>131.36</ele><time>2017-03-01T11:46:49Z</time></trkpt><trkpt lat="51.7342194077" lon="-1.9663985074"><ele>130.88</ele><time>2017-03-01T11:46:52Z</time></trkpt><trkpt lat="51.7341741454" lon="-1.9664788060"><ele>131.84</ele><time>2017-03-01T11:46:59Z</time></trkpt><trkpt lat="51.7341230996" lon="-1.9665769581"><ele>131.84</ele><time>2017-03-01T11:47:13Z</time></trkpt><trkpt lat="51.7340991274" lon="-1.9666104019"><ele>130.88</ele><time>2017-03-01T11:47:17Z</time></trkpt><trkpt lat="51.7340587266" lon="-1.9666468631"><ele>131.36</ele><time>2017-03-01T11:47:22Z</time></trkpt><trkpt lat="51.7339585628" lon="-1.9667097274"><ele>130.88</ele><time>2017-03-01T11:47:33Z</time></trkpt><trkpt lat="51.7338177469" lon="-1.9668268226"><ele>129.43</ele><time>2017-03-01T11:47:49Z</time></trkpt><trkpt lat="51.7337746639" lon="-1.9668668881"><ele>129.92</ele><time>2017-03-01T11:48:01Z</time></trkpt><trkpt lat="51.7337458301" lon="-1.9668802992"><ele>129.43</ele><time>2017-03-01T11:48:14Z</time></trkpt><trkpt lat="51.7336939462" lon="-1.9668880105"><ele>128.95</ele><time>2017-03-01T11:48:32Z</time></trkpt><trkpt lat="51.7336592451" lon="-1.9668894354"><ele>128.47</ele><time>2017-03-01T11:48:36Z</time></trkpt><trkpt lat="51.7336171679" lon="-1.9668897707"><ele>128.47</ele><time>2017-03-01T11:48:41Z</time></trkpt><trkpt lat="51.7334326822" lon="-1.9669053610"><ele>127.99</ele><time>2017-03-01T11:48:55Z</time></trkpt><trkpt lat="51.7332359590" lon="-1.9669491984"><ele>125.59</ele><time>2017-03-01T11:49:12Z</time></trkpt><trkpt lat="51.7331165168" lon="-1.9670061953"><ele>125.11</ele><time>2017-03-01T11:49:25Z</time></trkpt><trkpt lat="51.7330388166" lon="-1.9670731667"><ele>125.11</ele><time>2017-03-01T11:49:35Z</time></trkpt><trkpt lat="51.7330259923" lon="-1.9670863263"><ele>125.11</ele><time>2017-03-01T11:49:37Z</time></trkpt><trkpt lat="51.7329163570" lon="-1.9671862386"><ele>125.11</ele><time>2017-03-01T11:49:51Z</time></trkpt><trkpt lat="51.7327713501" lon="-1.9672875758"><ele>124.15</ele><time>2017-03-01T11:50:07Z</time></trkpt><trkpt lat="51.7327513173" lon="-1.9672983885"><ele>125.11</ele><time>2017-03-01T11:50:09Z</time></trkpt><trkpt lat="51.7326238286" lon="-1.9673372805"><ele>124.15</ele><time>2017-03-01T11:50:22Z</time></trkpt><trkpt lat="51.7325965036" lon="-1.9673433155"><ele>124.15</ele><time>2017-03-01T11:50:26Z</time></trkpt><trkpt lat="51.7325012852" lon="-1.9673682097"><ele>123.67</ele><time>2017-03-01T11:50:35Z</time></trkpt><trkpt lat="51.7324834317" lon="-1.9673723169"><ele>123.67</ele><time>2017-03-01T11:50:37Z</time></trkpt><trkpt lat="51.7323463876" lon="-1.9674213510"><ele>123.19</ele><time>2017-03-01T11:50:51Z</time></trkpt><trkpt lat="51.7322106846" lon="-1.9674373604"><ele>122.22</ele><time>2017-03-01T11:51:05Z</time></trkpt><trkpt lat="51.7321234290" lon="-1.9674434792"><ele>122.22</ele><time>2017-03-01T11:51:14Z</time></trkpt><trkpt lat="51.7320404481" lon="-1.9674381986"><ele>121.74</ele><time>2017-03-01T11:51:23Z</time></trkpt><trkpt lat="51.7320066690" lon="-1.9674381986"><ele>121.74</ele><time>2017-03-01T11:51:26Z</time></trkpt><trkpt lat="51.7319515999" lon="-1.9674298167"><ele>121.26</ele><time>2017-03-01T11:51:32Z</time></trkpt><trkpt lat="51.7319191620" lon="-1.9674210157"><ele>120.78</ele><time>2017-03-01T11:51:35Z</time></trkpt><trkpt lat="51.7317759991" lon="-1.9674168248"><ele>121.26</ele><time>2017-03-01T11:51:49Z</time></trkpt><trkpt lat="51.7317488417" lon="-1.9674040843"><ele>120.78</ele><time>2017-03-01T11:51:52Z</time></trkpt><trkpt lat="51.7315833829" lon="-1.9673903380"><ele>119.34</ele><time>2017-03-01T11:52:07Z</time></trkpt><trkpt lat="51.7314329278" lon="-1.9673544634"><ele>119.34</ele><time>2017-03-01T11:52:22Z</time></trkpt><trkpt lat="51.7313675489" lon="-1.9673452433"><ele>119.34</ele><time>2017-03-01T11:52:29Z</time></trkpt><trkpt lat="51.7312291637" lon="-1.9673430640"><ele>118.38</ele><time>2017-03-01T11:52:43Z</time></trkpt><trkpt lat="51.7311206181" lon="-1.9673286472"><ele>117.90</ele><time>2017-03-01T11:52:54Z</time></trkpt><trkpt lat="51.7309637927" lon="-1.9673117157"><ele>117.42</ele><time>2017-03-01T11:53:09Z</time></trkpt><trkpt lat="51.7309422512" lon="-1.9673107937"><ele>116.94</ele><time>2017-03-01T11:53:11Z</time></trkpt><trkpt lat="51.7308864277" lon="-1.9673177507"><ele>117.42</ele><time>2017-03-01T11:53:16Z</time></trkpt><trkpt lat="51.7307700031" lon="-1.9673261326"><ele>116.46</ele><time>2017-03-01T11:53:28Z</time></trkpt><trkpt lat="51.7306568474" lon="-1.9673370291"><ele>115.98</ele><time>2017-03-01T11:53:38Z</time></trkpt><trkpt lat="51.7306244094" lon="-1.9673301559"><ele>116.94</ele><time>2017-03-01T11:53:41Z</time></trkpt><trkpt lat="51.7306004371" lon="-1.9673365261"><ele>116.46</ele><time>2017-03-01T11:53:44Z</time></trkpt><trkpt lat="51.7304893769" lon="-1.9673312455"><ele>115.50</ele><time>2017-03-01T11:53:57Z</time></trkpt><trkpt lat="51.7304682545" lon="-1.9673264679"><ele>115.98</ele><time>2017-03-01T11:53:59Z</time></trkpt><trkpt lat="51.7303242534" lon="-1.9673430640"><ele>115.50</ele><time>2017-03-01T11:54:14Z</time></trkpt><trkpt lat="51.7302171327" lon="-1.9673594926"><ele>115.98</ele><time>2017-03-01T11:54:25Z</time></trkpt><trkpt lat="51.7301933281" lon="-1.9673701376"><ele>115.98</ele><time>2017-03-01T11:54:28Z</time></trkpt><trkpt lat="51.7301397678" lon="-1.9673775975"><ele>115.98</ele><time>2017-03-01T11:54:34Z</time></trkpt><trkpt lat="51.7300002091" lon="-1.9674026594"><ele>115.98</ele><time>2017-03-01T11:54:49Z</time></trkpt><trkpt lat="51.7298964411" lon="-1.9673925173"><ele>115.98</ele><time>2017-03-01T11:55:03Z</time></trkpt><trkpt lat="51.7298327386" lon="-1.9673808664"><ele>115.98</ele><time>2017-03-01T11:55:19Z</time></trkpt><trkpt lat="51.7297620792" lon="-1.9673969597"><ele>115.98</ele><time>2017-03-01T11:55:26Z</time></trkpt><trkpt lat="51.7297058366" lon="-1.9674068503"><ele>116.46</ele><time>2017-03-01T11:55:32Z</time></trkpt><trkpt lat="51.7296875641" lon="-1.9674128853"><ele>115.98</ele><time>2017-03-01T11:55:34Z</time></trkpt><trkpt lat="51.7295760009" lon="-1.9674190879"><ele>116.94</ele><time>2017-03-01T11:55:46Z</time></trkpt><trkpt lat="51.7294578999" lon="-1.9674267154"><ele>116.46</ele><time>2017-03-01T11:55:59Z</time></trkpt><trkpt lat="51.7293380387" lon="-1.9674598239"><ele>116.46</ele><time>2017-03-01T11:56:12Z</time></trkpt><trkpt lat="51.7292302474" lon="-1.9674922619"><ele>116.46</ele><time>2017-03-01T11:56:24Z</time></trkpt><trkpt lat="51.7291527148" lon="-1.9675099477"><ele>116.46</ele><time>2017-03-01T11:56:33Z</time></trkpt><trkpt lat="51.7290733382" lon="-1.9675381109"><ele>115.50</ele><time>2017-03-01T11:56:43Z</time></trkpt><trkpt lat="51.7289744318" lon="-1.9675888214"><ele>115.50</ele><time>2017-03-01T11:56:56Z</time></trkpt><trkpt lat="51.7289147526" lon="-1.9676140510"><ele>115.98</ele><time>2017-03-01T11:57:03Z</time></trkpt><trkpt lat="51.7288330290" lon="-1.9676764961"><ele>115.01</ele><time>2017-03-01T11:57:13Z</time></trkpt><trkpt lat="51.7287135031" lon="-1.9677656796"><ele>115.01</ele><time>2017-03-01T11:57:27Z</time></trkpt><trkpt lat="51.7286664806" lon="-1.9677907415"><ele>115.01</ele><time>2017-03-01T11:57:32Z</time></trkpt><trkpt lat="51.7286078073" lon="-1.9678344950"><ele>115.01</ele><time>2017-03-01T11:57:38Z</time></trkpt><trkpt lat="51.7285704240" lon="-1.9678660948"><ele>115.01</ele><time>2017-03-01T11:57:43Z</time></trkpt><trkpt lat="51.7285506427" lon="-1.9678779133"><ele>115.01</ele><time>2017-03-01T11:57:45Z</time></trkpt><trkpt lat="51.7284823302" lon="-1.9679477345"><ele>115.01</ele><time>2017-03-01T11:57:56Z</time></trkpt><trkpt lat="51.7284468748" lon="-1.9679733831"><ele>115.01</ele><time>2017-03-01T11:58:00Z</time></trkpt><trkpt lat="51.7283619661" lon="-1.9680430368"><ele>115.01</ele><time>2017-03-01T11:58:14Z</time></trkpt><trkpt lat="51.7283476330" lon="-1.9680675957"><ele>115.01</ele><time>2017-03-01T11:58:26Z</time></trkpt><trkpt lat="51.7282451224" lon="-1.9681310467"><ele>114.53</ele><time>2017-03-01T11:58:41Z</time></trkpt><trkpt lat="51.7282262631" lon="-1.9681442063"><ele>115.01</ele><time>2017-03-01T11:58:57Z</time></trkpt><trkpt lat="51.7282188032" lon="-1.9681866188"><ele>115.01</ele><time>2017-03-01T11:59:14Z</time></trkpt><trkpt lat="51.7282119300" lon="-1.9681986049"><ele>115.01</ele><time>2017-03-01T11:59:47Z</time></trkpt><trkpt lat="51.7282305378" lon="-1.9681977667"><ele>115.50</ele><time>2017-03-01T12:00:16Z</time></trkpt><trkpt lat="51.7282291129" lon="-1.9681954198"><ele>114.53</ele><time>2017-03-01T12:00:45Z</time></trkpt><trkpt lat="51.7281914782" lon="-1.9682447053"><ele>114.05</ele><time>2017-03-01T12:00:59Z</time></trkpt><trkpt lat="51.7280776519" lon="-1.9683688413"><ele>114.05</ele><time>2017-03-01T12:01:14Z</time></trkpt><trkpt lat="51.7280768137" lon="-1.9683731999"><ele>114.53</ele><time>2017-03-01T12:01:30Z</time></trkpt><trkpt lat="51.7280626483" lon="-1.9683909696"><ele>114.05</ele><time>2017-03-01T12:01:51Z</time></trkpt><trkpt lat="51.7280022986" lon="-1.9684610423"><ele>114.53</ele><time>2017-03-01T12:02:07Z</time></trkpt><trkpt lat="51.7279474810" lon="-1.9685506448"><ele>114.05</ele><time>2017-03-01T12:02:22Z</time></trkpt><trkpt lat="51.7278563697" lon="-1.9687201269"><ele>113.57</ele><time>2017-03-01T12:02:37Z</time></trkpt><trkpt lat="51.7277845368" lon="-1.9688554108"><ele>113.09</ele><time>2017-03-01T12:02:51Z</time></trkpt><trkpt lat="51.7277696170" lon="-1.9688663073"><ele>113.57</ele><time>2017-03-01T12:03:07Z</time></trkpt><trkpt lat="51.7276902404" lon="-1.9690403156"><ele>112.61</ele><time>2017-03-01T12:03:22Z</time></trkpt><trkpt lat="51.7275855504" lon="-1.9692136534"><ele>112.61</ele><time>2017-03-01T12:03:38Z</time></trkpt><trkpt lat="51.7275029048" lon="-1.9693532120"><ele>112.13</ele><time>2017-03-01T12:03:51Z</time></trkpt><trkpt lat="51.7274273001" lon="-1.9694513641"><ele>111.65</ele><time>2017-03-01T12:04:05Z</time></trkpt><trkpt lat="51.7273506057" lon="-1.9695717283"><ele>111.65</ele><time>2017-03-01T12:04:17Z</time></trkpt><trkpt lat="51.7273039185" lon="-1.9696387835"><ele>111.65</ele><time>2017-03-01T12:04:25Z</time></trkpt><trkpt lat="51.7272033356" lon="-1.9697894901"><ele>111.65</ele><time>2017-03-01T12:04:40Z</time></trkpt><trkpt lat="51.7271201871" lon="-1.9699236844"><ele>111.65</ele><time>2017-03-01T12:04:55Z</time></trkpt><trkpt lat="51.7270702310" lon="-1.9699638337"><ele>112.13</ele><time>2017-03-01T12:05:00Z</time></trkpt><trkpt lat="51.7269434128" lon="-1.9701371714"><ele>111.65</ele><time>2017-03-01T12:05:17Z</time></trkpt><trkpt lat="51.7268310953" lon="-1.9702732097"><ele>111.65</ele><time>2017-03-01T12:05:32Z</time></trkpt><trkpt lat="51.7267390620" lon="-1.9703671709"><ele>111.65</ele><time>2017-03-01T12:05:45Z</time></trkpt><trkpt lat="51.7266925424" lon="-1.9704051409"><ele>112.13</ele><time>2017-03-01T12:05:56Z</time></trkpt><trkpt lat="51.7265739385" lon="-1.9704732019"><ele>111.65</ele><time>2017-03-01T12:06:10Z</time></trkpt><trkpt lat="51.7265106551" lon="-1.9705038797"><ele>112.13</ele><time>2017-03-01T12:06:17Z</time></trkpt><trkpt lat="51.7263918836" lon="-1.9705777243"><ele>112.13</ele><time>2017-03-01T12:06:30Z</time></trkpt><trkpt lat="51.7262832541" lon="-1.9706223160"><ele>112.61</ele><time>2017-03-01T12:06:44Z</time></trkpt><trkpt lat="51.7261757143" lon="-1.9706597831"><ele>113.09</ele><time>2017-03-01T12:06:57Z</time></trkpt><trkpt lat="51.7260789871" lon="-1.9707241561"><ele>113.09</ele><time>2017-03-01T12:07:08Z</time></trkpt><trkpt lat="51.7260525841" lon="-1.9707379024"><ele>113.09</ele><time>2017-03-01T12:07:11Z</time></trkpt><trkpt lat="51.7259535100" lon="-1.9708455261"><ele>112.13</ele><time>2017-03-01T12:07:25Z</time></trkpt><trkpt lat="51.7258492392" lon="-1.9709415827"><ele>112.61</ele><time>2017-03-01T12:07:38Z</time></trkpt><trkpt lat="51.7257068306" lon="-1.9710103981"><ele>112.61</ele><time>2017-03-01T12:07:53Z</time></trkpt><trkpt lat="51.7255596444" lon="-1.9710224681"><ele>112.61</ele><time>2017-03-01T12:08:09Z</time></trkpt><trkpt lat="51.7254377715" lon="-1.9710667245"><ele>112.13</ele><time>2017-03-01T12:08:23Z</time></trkpt><trkpt lat="51.7253081873" lon="-1.9710978214"><ele>112.61</ele><time>2017-03-01T12:08:36Z</time></trkpt><trkpt lat="51.7252433952" lon="-1.9711133279"><ele>113.09</ele><time>2017-03-01T12:08:44Z</time></trkpt><trkpt lat="51.7251280602" lon="-1.9711169321"><ele>113.09</ele><time>2017-03-01T12:08:58Z</time></trkpt><trkpt lat="51.7250959575" lon="-1.9711266551"><ele>113.09</ele><time>2017-03-01T12:09:02Z</time></trkpt><trkpt lat="51.7250489350" lon="-1.9710943848"><ele>113.09</ele><time>2017-03-01T12:09:06Z</time></trkpt><trkpt lat="51.7249410599" lon="-1.9710884336"><ele>113.57</ele><time>2017-03-01T12:09:19Z</time></trkpt><trkpt lat="51.7248786986" lon="-1.9710994139"><ele>113.09</ele><time>2017-03-01T12:09:26Z</time></trkpt><trkpt lat="51.7248206120" lon="-1.9710927084"><ele>113.57</ele><time>2017-03-01T12:09:32Z</time></trkpt><trkpt lat="51.7247612681" lon="-1.9710901100"><ele>113.57</ele><time>2017-03-01T12:09:38Z</time></trkpt><trkpt lat="51.7246235535" lon="-1.9711031020"><ele>113.09</ele><time>2017-03-01T12:09:51Z</time></trkpt><trkpt lat="51.7245178577" lon="-1.9711346179"><ele>112.61</ele><time>2017-03-01T12:10:04Z</time></trkpt><trkpt lat="51.7244229745" lon="-1.9711399823"><ele>113.09</ele><time>2017-03-01T12:10:14Z</time></trkpt><trkpt lat="51.7243753653" lon="-1.9711323548"><ele>112.61</ele><time>2017-03-01T12:10:19Z</time></trkpt><trkpt lat="51.7242731899" lon="-1.9711414073"><ele>112.61</ele><time>2017-03-01T12:10:30Z</time></trkpt><trkpt lat="51.7241790611" lon="-1.9711313490"><ele>112.61</ele><time>2017-03-01T12:10:43Z</time></trkpt><trkpt lat="51.7241642252" lon="-1.9711348694"><ele>113.57</ele><time>2017-03-01T12:10:56Z</time></trkpt><trkpt lat="51.7241607048" lon="-1.9711262360"><ele>113.09</ele><time>2017-03-01T12:11:15Z</time></trkpt><trkpt lat="51.7241641413" lon="-1.9710991625"><ele>113.09</ele><time>2017-03-01T12:11:26Z</time></trkpt><trkpt lat="51.7241825815" lon="-1.9710083026"><ele>113.57</ele><time>2017-03-01T12:11:41Z</time></trkpt><trkpt lat="51.7242019437" lon="-1.9709317759"><ele>113.09</ele><time>2017-03-01T12:11:57Z</time></trkpt><trkpt lat="51.7242774647" lon="-1.9709619507"><ele>113.57</ele><time>2017-03-01T12:12:14Z</time></trkpt><trkpt lat="51.7242908757" lon="-1.9709400740"><ele>113.57</ele><time>2017-03-01T12:12:38Z</time></trkpt><trkpt lat="51.7243408319" lon="-1.9707379024"><ele>113.57</ele><time>2017-03-01T12:12:52Z</time></trkpt><trkpt lat="51.7243505549" lon="-1.9706674945"><ele>114.05</ele><time>2017-03-01T12:13:05Z</time></trkpt><trkpt lat="51.7243465316" lon="-1.9706353080"><ele>113.57</ele><time>2017-03-01T12:13:36Z</time></trkpt><trkpt lat="51.7243295163" lon="-1.9707205519"><ele>112.61</ele><time>2017-03-01T12:13:49Z</time></trkpt><trkpt lat="51.7242911272" lon="-1.9709199574"><ele>113.09</ele><time>2017-03-01T12:14:03Z</time></trkpt><trkpt lat="51.7242689990" lon="-1.9711056165"><ele>112.13</ele><time>2017-03-01T12:14:17Z</time></trkpt><trkpt lat="51.7242420930" lon="-1.9712250587"><ele>113.09</ele><time>2017-03-01T12:14:33Z</time></trkpt><trkpt lat="51.7242521513" lon="-1.9712154195"><ele>112.13</ele><time>2017-03-01T12:14:41Z</time></trkpt><trkpt lat="51.7242642213" lon="-1.9711267389"><ele>113.09</ele><time>2017-03-01T12:14:55Z</time></trkpt><trkpt lat="51.7242672388" lon="-1.9711321034"><ele>112.61</ele><time>2017-03-01T12:15:14Z</time></trkpt><trkpt lat="51.7242684960" lon="-1.9711414911"><ele>113.09</ele><time>2017-03-01T12:15:46Z</time></trkpt><trkpt lat="51.7242695857" lon="-1.9711373840"><ele>113.09</ele><time>2017-03-01T12:16:04Z</time></trkpt><trkpt lat="51.7242714297" lon="-1.9711346179"><ele>113.09</ele><time>2017-03-01T12:16:29Z</time></trkpt><trkpt lat="51.7242648918" lon="-1.9711330254"><ele>113.09</ele><time>2017-03-01T12:16:51Z</time></trkpt><trkpt lat="51.7242205516" lon="-1.9711614400"><ele>113.09</ele><time>2017-03-01T12:16:57Z</time></trkpt><trkpt lat="51.7241519876" lon="-1.9711594284"><ele>112.61</ele><time>2017-03-01T12:17:11Z</time></trkpt><trkpt lat="51.7240702640" lon="-1.9711458497"><ele>113.09</ele><time>2017-03-01T12:17:23Z</time></trkpt><trkpt lat="51.7239964195" lon="-1.9711583387"><ele>113.57</ele><time>2017-03-01T12:17:31Z</time></trkpt><trkpt lat="51.7239102535" lon="-1.9711518846"><ele>113.09</ele><time>2017-03-01T12:17:40Z</time></trkpt><trkpt lat="51.7237665039" lon="-1.9711754378"><ele>113.09</ele><time>2017-03-01T12:17:54Z</time></trkpt><trkpt lat="51.7236838583" lon="-1.9711756893"><ele>114.05</ele><time>2017-03-01T12:18:02Z</time></trkpt><trkpt lat="51.7236271966" lon="-1.9711751863"><ele>114.05</ele><time>2017-03-01T12:18:08Z</time></trkpt><trkpt lat="51.7236074153" lon="-1.9711819757"><ele>114.05</ele><time>2017-03-01T12:18:10Z</time></trkpt><trkpt lat="51.7234908231" lon="-1.9711506274"><ele>115.50</ele><time>2017-03-01T12:18:22Z</time></trkpt><trkpt lat="51.7234709579" lon="-1.9711813889"><ele>114.53</ele><time>2017-03-01T12:18:25Z</time></trkpt><trkpt lat="51.7233451456" lon="-1.9711785391"><ele>114.05</ele><time>2017-03-01T12:18:39Z</time></trkpt><trkpt lat="51.7232081853" lon="-1.9711839873"><ele>115.01</ele><time>2017-03-01T12:18:52Z</time></trkpt><trkpt lat="51.7231015675" lon="-1.9711991586"><ele>113.09</ele><time>2017-03-01T12:19:04Z</time></trkpt><trkpt lat="51.7229580693" lon="-1.9712398946"><ele>113.09</ele><time>2017-03-01T12:19:19Z</time></trkpt><trkpt lat="51.7227686383" lon="-1.9713541400"><ele>111.17</ele><time>2017-03-01T12:19:39Z</time></trkpt><trkpt lat="51.7226695642" lon="-1.9713445846"><ele>111.65</ele><time>2017-03-01T12:19:53Z</time></trkpt><trkpt lat="51.7226128187" lon="-1.9712636154"><ele>112.13</ele><time>2017-03-01T12:20:05Z</time></trkpt><trkpt lat="51.7225859128" lon="-1.9712519646"><ele>112.13</ele><time>2017-03-01T12:20:19Z</time></trkpt><trkpt lat="51.7224412411" lon="-1.9713557325"><ele>110.69</ele><time>2017-03-01T12:20:35Z</time></trkpt><trkpt lat="51.7223565001" lon="-1.9714122266"><ele>111.17</ele><time>2017-03-01T12:20:46Z</time></trkpt><trkpt lat="51.7223169375" lon="-1.9714481849"><ele>103.48</ele><time>2017-03-01T12:20:55Z</time></trkpt><trkpt lat="51.7223166861" lon="-1.9714473467"><ele>114.05</ele><time>2017-03-01T12:20:56Z</time></trkpt><trkpt lat="51.7223158479" lon="-1.9714457542"><ele>110.69</ele><time>2017-03-01T12:20:57Z</time></trkpt><trkpt lat="51.7222913727" lon="-1.9714845624"><ele>111.17</ele><time>2017-03-01T12:21:18Z</time></trkpt><trkpt lat="51.7221570108" lon="-1.9715874922"><ele>110.69</ele><time>2017-03-01T12:21:32Z</time></trkpt><trkpt lat="51.7219817452" lon="-1.9717493467"><ele>110.69</ele><time>2017-03-01T12:21:48Z</time></trkpt><trkpt lat="51.7219114210" lon="-1.9718068466"><ele>109.73</ele><time>2017-03-01T12:21:56Z</time></trkpt><trkpt lat="51.7217779811" lon="-1.9718962815"><ele>110.21</ele><time>2017-03-01T12:22:12Z</time></trkpt><trkpt lat="51.7216370814" lon="-1.9719884824"><ele>111.65</ele><time>2017-03-01T12:22:27Z</time></trkpt><trkpt lat="51.7215590458" lon="-1.9720503408"><ele>110.69</ele><time>2017-03-01T12:22:42Z</time></trkpt><trkpt lat="51.7215311341" lon="-1.9720900711"><ele>111.65</ele><time>2017-03-01T12:22:46Z</time></trkpt><trkpt lat="51.7215247639" lon="-1.9721004646"><ele>111.65</ele><time>2017-03-01T12:22:48Z</time></trkpt><trkpt lat="51.7214839440" lon="-1.9721227605"><ele>111.17</ele><time>2017-03-01T12:22:52Z</time></trkpt><trkpt lat="51.7214491591" lon="-1.9721441343"><ele>111.17</ele><time>2017-03-01T12:22:56Z</time></trkpt><trkpt lat="51.7213258613" lon="-1.9721976947"><ele>111.65</ele><time>2017-03-01T12:23:12Z</time></trkpt><trkpt lat="51.7213354167" lon="-1.9721924141"><ele>111.17</ele><time>2017-03-01T12:23:13Z</time></trkpt><trkpt lat="51.7214861233" lon="-1.9720796775"><ele>112.13</ele><time>2017-03-01T12:23:27Z</time></trkpt><trkpt lat="51.7214973550" lon="-1.9720733911"><ele>111.65</ele><time>2017-03-01T12:23:28Z</time></trkpt><trkpt lat="51.7215100117" lon="-1.9720271230"><ele>111.17</ele><time>2017-03-01T12:23:31Z</time></trkpt><trkpt lat="51.7215365823" lon="-1.9717831258"><ele>111.17</ele><time>2017-03-01T12:23:47Z</time></trkpt><trkpt lat="51.7214312218" lon="-1.9715996459"><ele>110.21</ele><time>2017-03-01T12:24:02Z</time></trkpt><trkpt lat="51.7213093489" lon="-1.9714315049"><ele>110.21</ele><time>2017-03-01T12:24:15Z</time></trkpt><trkpt lat="51.7211342510" lon="-1.9712059479"><ele>109.73</ele><time>2017-03-01T12:24:32Z</time></trkpt><trkpt lat="51.7210858874" lon="-1.9710663892"><ele>110.21</ele><time>2017-03-01T12:24:46Z</time></trkpt><trkpt lat="51.7211065907" lon="-1.9708101545"><ele>110.21</ele><time>2017-03-01T12:25:01Z</time></trkpt><trkpt lat="51.7211699579" lon="-1.9706457853"><ele>109.73</ele><time>2017-03-01T12:25:15Z</time></trkpt><trkpt lat="51.7211212590" lon="-1.9704519119"><ele>109.73</ele><time>2017-03-01T12:25:32Z</time></trkpt><trkpt lat="51.7210293096" lon="-1.9702113513"><ele>110.21</ele><time>2017-03-01T12:25:48Z</time></trkpt><trkpt lat="51.7209727317" lon="-1.9700554479"><ele>109.73</ele><time>2017-03-01T12:26:07Z</time></trkpt><trkpt lat="51.7207922693" lon="-1.9700569566"><ele>109.25</ele><time>2017-03-01T12:26:23Z</time></trkpt><trkpt lat="51.7207607534" lon="-1.9701609761"><ele>109.25</ele><time>2017-03-01T12:26:38Z</time></trkpt><trkpt lat="51.7207480967" lon="-1.9701915700"><ele>109.73</ele><time>2017-03-01T12:26:57Z</time></trkpt><trkpt lat="51.7207510304" lon="-1.9701934978"><ele>109.73</ele><time>2017-03-01T12:27:00Z</time></trkpt></trkseg></trk></gpx>